createdAt,value
2019-06-10T00:01:34.919Z,100.40
2019-06-10T00:04:08.534Z,100.90
2019-06-10T00:06:34.691Z,98.97
2019-06-10T00:09:06.060Z,98.13
2019-06-10T00:11:33.495Z,97.60
2019-06-10T00:14:02.456Z,99.33
2019-06-10T00:16:30.865Z,106.43
2019-06-10T00:18:58.332Z,100.77
2019-06-10T00:24:28.315Z,102.47
2019-06-10T00:26:55.636Z,100.03
2019-06-10T00:29:23.062Z,100.47
2019-06-10T00:31:51.372Z,102.20
2019-06-10T00:34:20.908Z,102.47
2019-06-10T00:36:50.955Z,98.93
2019-06-10T00:39:18.304Z,99.63
2019-06-10T00:41:45.746Z,100.53
2019-06-10T00:44:13.132Z,99.93
2019-06-10T00:46:40.811Z,100.10
2019-06-10T00:49:12.546Z,103.33
2019-06-10T00:51:38.126Z,101.53
2019-06-10T00:54:07.023Z,101.13
2019-06-10T00:56:37.672Z,99.30
2019-06-10T00:59:05.848Z,100.67
2019-06-10T01:01:33.464Z,98.53
2019-06-10T01:04:02.927Z,100.30
2019-06-10T01:06:31.808Z,100.50
2019-06-10T01:09:00.642Z,100.97
2019-06-10T01:11:30.859Z,102.57
2019-06-10T01:13:57.541Z,105.13
2019-06-10T01:16:24.870Z,101.60
2019-06-10T01:18:53.611Z,103.07
2019-06-10T01:21:21.876Z,102.60
2019-06-10T01:23:51.167Z,100.70
2019-06-10T01:26:21.333Z,99.50
2019-06-10T01:28:48.166Z,100.37
2019-06-10T01:31:19.152Z,101.13
2019-06-10T01:33:44.891Z,101.33
2019-06-10T01:36:13.390Z,101.63
2019-06-10T01:38:41.534Z,102.30
2019-06-10T01:41:11.117Z,100.43
2019-06-10T01:43:40.668Z,102.27
2019-06-10T01:46:08.730Z,100.87
2019-06-10T01:48:44.123Z,102.57
2019-06-10T01:51:07.145Z,101.63
2019-06-10T01:53:34.847Z,102.67
2019-06-10T01:56:02.493Z,101.17
2019-06-10T01:58:31.549Z,104.17
2019-06-10T02:01:22.820Z,104.10
2019-06-10T02:03:48.277Z,103.37
2019-06-10T02:06:18.332Z,100.43
2019-06-10T02:08:45.188Z,100.73
2019-06-10T02:11:15.495Z,97.33
2019-06-10T02:13:41.912Z,99.23
2019-06-10T02:16:12.217Z,102.70
2019-06-10T02:18:40.966Z,98.93
2019-06-10T02:21:07.866Z,106.30
2019-06-10T02:23:35.148Z,98.80
2019-06-10T02:26:02.516Z,98.83
2019-06-10T02:28:31.657Z,99.50
2019-06-10T02:31:03.880Z,102.03
2019-06-10T02:33:35.901Z,102.00
2019-06-10T02:36:03.926Z,100.33
2019-06-10T02:38:35.400Z,104.10
2019-06-10T02:41:03.649Z,102.43
2019-06-10T02:43:32.417Z,102.33
2019-06-10T02:45:58.631Z,102.77
2019-06-10T02:48:30.253Z,99.43
2019-06-10T02:51:06.253Z,101.07
2019-06-10T02:53:36.433Z,108.13
2019-06-10T02:56:07.127Z,107.47
2019-06-10T02:58:39.094Z,102.17
2019-06-10T03:01:04.641Z,105.80
2019-06-10T03:03:41.082Z,106.23
2019-06-10T03:06:06.555Z,105.27
2019-06-10T03:08:35.295Z,103.57
2019-06-10T03:11:03.791Z,104.23
2019-06-10T03:13:33.159Z,105.03
2019-06-10T03:16:09.171Z,105.40
2019-06-10T03:18:36.511Z,105.10
2019-06-10T03:21:03.994Z,102.77
2019-06-10T03:23:32.015Z,107.93
2019-06-10T03:26:03.724Z,106.87
2019-06-10T03:28:32.089Z,104.50
2019-06-10T03:30:59.851Z,106.23
2019-06-10T03:33:34.780Z,105.47
2019-06-10T03:35:56.826Z,106.33
2019-06-10T03:38:27.008Z,105.73
2019-06-10T03:40:54.117Z,105.90
2019-06-10T03:43:23.808Z,105.80
2019-06-10T03:45:53.151Z,105.47
2019-06-10T03:48:21.758Z,104.40
2019-06-10T03:50:52.324Z,111.87
2019-06-10T03:53:21.278Z,105.53
2019-06-10T03:55:49.356Z,104.57
2019-06-10T03:58:17.459Z,105.10
2019-06-10T04:00:45.185Z,108.83
2019-06-10T04:03:12.808Z,103.87
2019-06-10T04:05:42.303Z,106.70
2019-06-10T04:08:09.692Z,104.10
2019-06-10T04:10:37.301Z,105.67
2019-06-10T04:13:04.856Z,105.97
2019-06-10T04:15:32.737Z,109.00
2019-06-10T04:18:00.244Z,109.47
2019-06-10T04:20:29.446Z,106.20
2019-06-10T04:22:58.149Z,104.70
2019-06-10T04:25:28.263Z,106.70
2019-06-10T04:27:57.013Z,102.67
2019-06-10T04:30:26.433Z,105.13
2019-06-10T04:32:53.990Z,103.43
2019-06-10T04:35:23.379Z,106.67
2019-06-10T04:37:56.604Z,102.40
2019-06-10T04:40:26.029Z,102.50
2019-06-10T04:42:54.348Z,102.87
2019-06-10T04:45:23.627Z,103.67
2019-06-10T04:47:52.470Z,104.57
2019-06-10T04:50:27.072Z,106.47
2019-06-10T04:52:49.756Z,105.63
2019-06-10T04:55:18.808Z,103.77
2019-06-10T04:57:46.377Z,102.87
2019-06-10T05:00:16.116Z,104.13
2019-06-10T05:02:43.449Z,101.33
2019-06-10T05:05:13.053Z,102.20
2019-06-10T05:07:42.797Z,102.37
2019-06-10T05:10:12.354Z,103.67
2019-06-10T05:12:39.571Z,102.80
2019-06-10T05:15:07.526Z,102.00
2019-06-10T05:17:35.308Z,103.80
2019-06-10T05:20:06.221Z,105.63
2019-06-10T05:22:33.776Z,103.90
2019-06-10T05:25:02.657Z,109.83
2019-06-10T05:27:32.918Z,107.23
2019-06-10T05:30:02.294Z,107.13
2019-06-10T05:32:30.487Z,105.83
2019-06-10T05:34:58.741Z,107.37
2019-06-10T05:37:26.714Z,110.83
2019-06-10T05:39:55.313Z,106.00
2019-06-10T05:42:24.896Z,106.53
2019-06-10T05:44:52.561Z,103.00
2019-06-10T05:47:23.362Z,103.43
2019-06-10T05:49:50.083Z,103.47
2019-06-10T05:52:17.394Z,103.67
2019-06-10T05:54:44.921Z,104.90
2019-06-10T05:57:12.511Z,104.90
2019-06-10T05:59:39.972Z,103.33
2019-06-10T06:02:07.842Z,108.30
2019-06-10T06:04:36.111Z,103.27
2019-06-10T06:07:03.829Z,104.23
2019-06-10T06:09:33.605Z,104.37
2019-06-10T06:12:02.512Z,103.43
2019-06-10T06:14:31.637Z,106.80
2019-06-10T06:17:02.102Z,101.57
2019-06-10T06:19:30.173Z,104.47
2019-06-10T06:21:58.146Z,103.73
2019-06-10T06:24:25.589Z,106.60
2019-06-10T06:26:53.497Z,101.57
2019-06-10T06:29:22.248Z,102.00
2019-06-10T06:31:52.395Z,101.77
2019-06-10T06:34:19.327Z,103.67
2019-06-10T06:36:46.759Z,102.97
2019-06-10T06:39:14.082Z,102.43
2019-06-10T06:41:42.753Z,104.17
2019-06-10T06:44:12.736Z,101.23
2019-06-10T06:46:39.817Z,102.80
2019-06-10T06:49:07.304Z,102.50
2019-06-10T06:51:47.697Z,102.90
2019-06-10T06:54:04.441Z,102.70
2019-06-10T06:56:35.624Z,102.50
2019-06-10T06:59:02.502Z,102.33
2019-06-10T07:01:32.959Z,102.97
2019-06-10T07:03:59.492Z,103.40
2019-06-10T07:06:27.111Z,104.00
2019-06-10T07:09:04.100Z,102.57
2019-06-10T07:11:25.880Z,102.23
2019-06-10T07:13:54.491Z,104.83
2019-06-10T07:16:23.014Z,104.23
2019-06-10T07:18:53.692Z,103.27
2019-06-10T07:21:22.578Z,103.97
2019-06-10T07:23:52.605Z,102.73
2019-06-10T07:26:22.014Z,102.37
2019-06-10T07:28:48.868Z,110.37
2019-06-10T07:31:23.824Z,105.17
2019-06-10T07:33:47.311Z,102.60
2019-06-10T07:36:14.818Z,101.77
2019-06-10T07:38:47.027Z,102.70
2019-06-10T07:41:12.567Z,102.00
2019-06-10T07:43:44.225Z,101.30
2019-06-10T07:46:09.297Z,105.47
2019-06-10T07:48:38.558Z,103.47
2019-06-10T07:51:06.599Z,110.63
2019-06-10T07:53:36.316Z,104.30
2019-06-10T07:56:04.179Z,102.73
2019-06-10T07:58:34.612Z,104.73
2019-06-10T08:01:02.664Z,104.87
2019-06-10T08:03:32.602Z,107.73
2019-06-10T08:06:03.337Z,105.13
2019-06-10T08:08:32.950Z,105.03
2019-06-10T08:11:03.075Z,101.77
2019-06-10T08:13:32.081Z,116.10
2019-06-10T08:15:58.834Z,103.97
2019-06-10T08:18:26.518Z,105.33
2019-06-10T08:20:53.954Z,103.53
2019-06-10T08:23:23.626Z,102.70
2019-06-10T08:25:54.545Z,106.47
2019-06-10T08:28:23.008Z,104.60
2019-06-10T08:30:53.168Z,112.60
2019-06-10T08:33:22.780Z,104.83
2019-06-10T08:35:57.313Z,105.13
2019-06-10T08:38:19.938Z,104.30
2019-06-10T08:40:48.532Z,103.33
2019-06-10T08:43:16.783Z,105.10
2019-06-10T08:45:47.032Z,109.13
2019-06-10T08:48:14.933Z,105.40
2019-06-10T08:50:46.622Z,104.80
2019-06-10T08:53:15.545Z,105.13
2019-06-10T08:55:44.371Z,103.83
2019-06-10T08:58:12.821Z,105.50
2019-06-10T09:00:43.426Z,105.77
2019-06-10T09:03:09.561Z,106.87
2019-06-10T09:05:38.710Z,105.47
2019-06-10T09:08:07.825Z,104.07
2019-06-10T09:10:35.154Z,104.00
2019-06-10T09:13:02.883Z,104.93
2019-06-10T09:15:32.516Z,104.73
2019-06-10T09:18:02.472Z,107.27
2019-06-10T09:20:29.105Z,106.17
2019-06-10T09:23:16.807Z,108.10
2019-06-10T09:25:26.078Z,108.87
2019-06-10T09:27:54.752Z,111.40
2019-06-10T09:30:23.361Z,105.37
2019-06-10T09:32:53.691Z,105.77
2019-06-10T09:35:23.388Z,108.73
2019-06-10T09:37:51.742Z,109.97
2019-06-10T09:40:19.479Z,110.63
2019-06-10T09:42:49.721Z,108.30
2019-06-10T09:45:17.743Z,108.07
2019-06-10T09:47:49.234Z,106.60
2019-06-10T09:50:22.719Z,110.10
2019-06-10T09:52:53.380Z,105.37
2019-06-10T09:55:29.975Z,107.27
2019-06-10T09:57:59.945Z,107.03
2019-06-10T10:00:45.298Z,106.60
2019-06-10T10:03:12.389Z,104.77
2019-06-10T10:05:51.923Z,108.00
2019-06-10T10:08:12.529Z,109.50
2019-06-10T10:10:41.642Z,109.43
2019-06-10T10:13:10.251Z,106.27
2019-06-10T10:15:38.042Z,106.67
2019-06-10T10:18:07.987Z,109.47
2019-06-10T10:20:35.581Z,107.03
2019-06-10T10:23:03.572Z,107.53
2019-06-10T10:25:33.272Z,108.03
2019-06-10T10:28:03.189Z,106.50
2019-06-10T10:30:33.052Z,106.43
2019-06-10T10:33:02.496Z,109.00
2019-06-10T10:35:29.141Z,108.23
2019-06-10T10:37:56.974Z,107.73
2019-06-10T10:40:26.110Z,106.83
2019-06-10T10:43:25.234Z,106.83
2019-06-10T10:45:47.321Z,107.20
2019-06-10T10:48:14.063Z,110.20
2019-06-10T10:50:43.531Z,107.17
2019-06-10T10:53:12.826Z,114.73
2019-06-10T10:55:42.528Z,111.30
2019-06-10T10:58:12.720Z,107.67
2019-06-10T11:00:46.832Z,108.63
2019-06-10T11:03:14.318Z,109.13
2019-06-10T11:05:44.710Z,107.67
2019-06-10T11:08:13.523Z,109.90
2019-06-10T11:10:43.409Z,105.87
2019-06-10T11:13:12.314Z,108.03
2019-06-10T11:15:39.753Z,107.63
2019-06-10T11:18:07.811Z,110.43
2019-06-10T11:20:35.520Z,106.63
2019-06-10T11:23:03.404Z,109.87
2019-06-10T11:25:33.045Z,107.43
2019-06-10T11:28:03.380Z,108.87
2019-06-10T11:30:32.245Z,105.80
2019-06-10T11:32:59.694Z,108.13
2019-06-10T11:35:27.161Z,104.63
2019-06-10T11:37:56.688Z,108.93
2019-06-10T11:40:24.695Z,109.90
2019-06-10T11:42:56.367Z,113.07
2019-06-10T11:45:22.872Z,112.70
2019-06-10T11:47:51.656Z,109.10
2019-06-10T11:50:23.205Z,109.50
2019-06-10T11:52:56.612Z,110.37
2019-06-10T11:55:23.072Z,109.57
2019-06-10T11:57:49.820Z,111.63
2019-06-10T12:00:18.625Z,110.87
2019-06-10T12:02:48.602Z,118.80
2019-06-10T12:05:20.283Z,107.40
2019-06-10T12:07:46.729Z,109.37
2019-06-10T12:10:14.926Z,111.60
2019-06-10T12:12:43.312Z,111.37
2019-06-10T12:15:14.927Z,108.40
2019-06-10T12:17:50.572Z,110.20
2019-06-10T12:20:13.251Z,107.30
2019-06-10T12:22:42.398Z,112.60
2019-06-10T12:25:31.449Z,107.43
2019-06-10T12:27:40.050Z,107.93
2019-06-10T12:30:09.440Z,109.23
2019-06-10T12:32:36.942Z,106.53
2019-06-10T12:35:05.764Z,115.27
2019-06-10T12:37:33.834Z,109.50
2019-06-10T12:40:05.663Z,110.17
2019-06-10T12:42:32.791Z,106.70
2019-06-10T12:45:04.000Z,107.70
2019-06-10T12:47:29.818Z,108.37
2019-06-10T12:49:57.568Z,106.67
2019-06-10T12:52:26.245Z,107.63
2019-06-10T12:54:55.599Z,107.17
2019-06-10T12:57:23.162Z,105.73
2019-06-10T12:59:52.232Z,108.40
2019-06-10T13:02:24.460Z,108.70
2019-06-10T13:04:52.091Z,107.97
2019-06-10T13:07:22.716Z,105.93
2019-06-10T13:09:55.339Z,107.67
2019-06-10T13:12:23.187Z,104.50
2019-06-10T13:14:52.125Z,107.23
2019-06-10T13:17:19.721Z,106.27
2019-06-10T13:19:47.129Z,107.20
2019-06-10T13:22:14.442Z,108.30
2019-06-10T13:24:42.352Z,105.53
2019-06-10T13:27:10.950Z,106.00
2019-06-10T13:29:38.685Z,103.50
2019-06-10T13:32:07.887Z,105.10
2019-06-10T13:34:35.561Z,105.10
2019-06-10T13:37:05.037Z,107.43
2019-06-10T13:39:33.029Z,108.30
2019-06-10T13:42:05.016Z,109.40
2019-06-10T13:44:32.161Z,111.57
2019-06-10T13:47:22.529Z,106.17
2019-06-10T13:49:53.114Z,113.83
2019-06-10T13:52:20.252Z,116.63
2019-06-10T13:54:48.415Z,111.27
2019-06-10T13:57:16.409Z,109.57
2019-06-10T13:59:46.408Z,106.73
2019-06-10T14:02:14.030Z,106.50
2019-06-10T14:04:42.372Z,111.33
2019-06-10T14:07:14.505Z,116.30
2019-06-10T14:09:39.205Z,117.03
2019-06-10T14:12:08.023Z,109.37
2019-06-10T14:14:35.518Z,106.50
2019-06-10T14:17:05.509Z,110.00
2019-06-10T14:19:33.465Z,111.70
2019-06-10T14:22:02.420Z,111.00
2019-06-10T14:24:32.823Z,108.33
2019-06-10T14:27:00.246Z,106.20
2019-06-10T14:29:28.297Z,104.80
2019-06-10T14:31:55.842Z,105.70
2019-06-10T14:34:24.067Z,105.93
2019-06-10T14:36:52.480Z,104.67
2019-06-10T14:39:22.147Z,105.10
2019-06-10T14:41:52.140Z,104.77
2019-06-10T14:44:19.048Z,105.57
2019-06-10T14:46:46.592Z,105.73
2019-06-10T14:49:15.662Z,107.67
2019-06-10T14:51:43.296Z,110.13
2019-06-10T14:54:12.111Z,101.10
2019-06-10T14:56:50.773Z,108.80
2019-06-10T14:59:12.111Z,103.70
2019-06-10T15:01:39.459Z,104.20
2019-06-10T15:04:07.848Z,102.03
2019-06-10T15:06:35.509Z,103.27
2019-06-10T15:09:05.210Z,103.40
2019-06-10T15:11:34.303Z,104.37
2019-06-10T15:14:03.389Z,105.90
2019-06-10T15:16:33.447Z,106.73
2019-06-10T15:19:12.019Z,103.60
2019-06-10T15:21:29.443Z,106.97
2019-06-10T15:23:56.976Z,104.53
2019-06-10T15:26:24.395Z,103.57
2019-06-10T15:28:52.992Z,104.20
2019-06-10T15:31:20.624Z,105.47
2019-06-10T15:33:48.118Z,103.33
2019-06-10T15:36:15.759Z,106.03
2019-06-10T15:39:16.765Z,105.27
2019-06-10T15:41:44.165Z,133.40
2019-06-10T15:44:14.633Z,141.00
2019-06-10T15:46:43.015Z,137.43
2019-06-10T15:49:14.579Z,144.03
2019-06-10T15:51:40.160Z,130.67
2019-06-10T15:54:07.779Z,141.07
2019-06-10T15:56:45.708Z,129.87
2019-06-10T15:59:04.852Z,134.43
2019-06-10T16:01:32.727Z,141.97
2019-06-10T16:04:00.269Z,130.77
2019-06-10T16:06:27.678Z,134.47
2019-06-10T16:08:55.065Z,137.10
2019-06-10T16:11:26.462Z,132.50
2019-06-10T16:13:53.373Z,136.40
2019-06-10T16:16:21.080Z,139.73
2019-06-10T16:18:48.561Z,126.43
2019-06-10T16:21:17.427Z,129.07
2019-06-10T16:23:45.447Z,124.33
2019-06-10T16:26:14.462Z,141.83
2019-06-10T16:28:42.812Z,131.43
2019-06-10T16:31:12.930Z,130.50
2019-06-10T16:33:39.468Z,135.93
2019-06-10T16:36:07.038Z,126.53
2019-06-10T16:38:34.335Z,140.07
2019-06-10T16:41:03.587Z,128.90
2019-06-10T16:43:33.230Z,127.03
2019-06-10T16:46:00.284Z,130.97
2019-06-10T16:48:27.621Z,133.70
2019-06-10T16:50:55.015Z,127.87
2019-06-10T16:53:28.145Z,135.03
2019-06-10T16:55:52.917Z,125.57
2019-06-10T16:58:23.615Z,129.33
2019-06-10T17:00:49.930Z,134.97
2019-06-10T17:03:18.361Z,130.70
2019-06-10T17:05:46.420Z,140.07
2019-06-10T17:08:14.973Z,142.60
2019-06-10T17:10:43.518Z,142.67
2019-06-10T17:13:13.333Z,142.93
2019-06-10T17:15:42.349Z,135.37
2019-06-10T17:18:10.085Z,122.63
2019-06-10T17:20:37.974Z,136.70
2019-06-10T17:23:21.836Z,121.60
2019-06-10T17:25:53.416Z,122.87
2019-06-10T17:28:25.646Z,128.23
2019-06-10T17:30:53.017Z,123.73
2019-06-10T17:33:22.850Z,125.00
2019-06-10T17:35:52.299Z,123.77
2019-06-10T17:38:20.571Z,129.67
2019-06-10T17:40:48.041Z,126.03
2019-06-10T17:43:15.629Z,130.93
2019-06-10T17:45:43.189Z,128.97
2019-06-10T17:48:12.838Z,132.47
2019-06-10T17:50:39.930Z,129.63
2019-06-10T17:53:07.406Z,129.03
2019-06-10T17:55:35.724Z,130.67
2019-06-10T17:58:04.120Z,130.90
2019-06-10T18:00:36.069Z,127.90
2019-06-10T18:03:03.792Z,130.70
2019-06-10T18:05:33.545Z,132.10
2019-06-10T18:08:02.387Z,140.90
2019-06-10T18:10:34.449Z,137.73
2019-06-10T18:13:13.281Z,133.13
2019-06-10T18:15:36.850Z,143.00
2019-06-10T18:18:05.604Z,145.13
2019-06-10T18:20:36.960Z,136.33
2019-06-10T18:23:05.577Z,139.47
2019-06-10T18:25:35.071Z,131.87
2019-06-10T18:28:02.881Z,126.27
2019-06-10T18:30:35.583Z,134.83
2019-06-10T18:33:02.756Z,143.43
2019-06-10T18:35:33.120Z,141.13
2019-06-10T18:38:02.196Z,128.17
2019-06-10T18:40:29.664Z,130.60
2019-06-10T18:42:57.077Z,133.60
2019-06-10T18:45:24.859Z,143.23
2019-06-10T18:47:53.060Z,142.60
2019-06-10T18:50:25.859Z,158.60
2019-06-10T18:52:54.193Z,128.80
2019-06-10T18:55:23.045Z,152.10
2019-06-10T18:57:52.985Z,137.47
2019-06-10T19:00:22.930Z,143.70
2019-06-10T19:03:03.900Z,135.80
2019-06-10T19:05:22.429Z,133.40
2019-06-10T19:07:52.921Z,125.53
2019-06-10T19:10:23.044Z,139.90
2019-06-10T19:12:52.995Z,145.03
2019-06-10T19:15:20.349Z,145.53
2019-06-10T19:17:47.728Z,128.53
2019-06-10T19:20:18.023Z,142.10
2019-06-10T19:22:45.718Z,136.90
2019-06-10T19:25:13.542Z,134.80
2019-06-10T19:27:44.245Z,139.60
2019-06-10T19:30:13.011Z,136.77
2019-06-10T19:32:44.163Z,126.10
2019-06-10T19:35:13.086Z,126.17
2019-06-10T19:37:42.199Z,132.23
2019-06-10T19:40:12.378Z,152.07
2019-06-10T19:42:40.264Z,138.93
2019-06-10T19:45:09.407Z,127.30
2019-06-10T19:47:38.018Z,132.00
2019-06-10T19:50:06.614Z,149.77
2019-06-10T19:52:35.215Z,141.10
2019-06-10T19:55:06.978Z,145.67
2019-06-10T19:57:34.353Z,147.33
2019-06-10T20:00:11.499Z,149.70
2019-06-10T20:02:34.570Z,147.67
2019-06-10T20:05:02.587Z,139.67
2019-06-10T20:07:30.331Z,143.53
2019-06-10T20:09:57.710Z,146.57
2019-06-10T20:12:25.297Z,134.03
2019-06-10T20:14:52.997Z,159.37
2019-06-10T20:17:22.736Z,155.50
2019-06-10T20:19:49.712Z,152.07
2019-06-10T20:22:17.268Z,146.47
2019-06-10T20:24:46.639Z,146.93
2019-06-10T20:27:14.237Z,144.57
2019-06-10T20:29:43.022Z,156.77
2019-06-10T20:32:10.852Z,146.80
2019-06-10T20:34:41.322Z,143.87
2019-06-10T20:37:09.096Z,141.90
2019-06-10T20:39:37.870Z,158.90
2019-06-10T20:42:05.422Z,142.97
2019-06-10T20:44:32.764Z,115.17
2019-06-10T20:47:00.125Z,133.53
2019-06-10T20:49:27.481Z,153.20
2019-06-10T20:52:09.968Z,134.43
2019-06-10T20:54:24.524Z,168.10
2019-06-10T20:56:53.440Z,140.87
2019-06-10T20:59:25.442Z,143.33
2019-06-10T21:01:53.416Z,142.27
2019-06-10T21:04:22.069Z,156.20
2019-06-10T21:06:52.984Z,138.77
2019-06-10T21:09:22.525Z,149.23
2019-06-10T21:11:51.311Z,130.77
2019-06-10T21:14:19.349Z,147.70
2019-06-10T21:16:46.698Z,137.70
2019-06-10T21:19:14.205Z,149.17
2019-06-10T21:21:45.091Z,135.47
2019-06-10T21:24:12.662Z,143.23
2019-06-10T21:26:41.106Z,129.73
2019-06-10T21:29:09.614Z,158.47
2019-06-10T21:31:36.979Z,137.53
2019-06-10T21:34:04.503Z,138.07
2019-06-10T21:36:32.228Z,136.93
2019-06-10T21:39:02.556Z,149.30
2019-06-10T21:41:30.240Z,139.93
2019-06-10T21:43:59.602Z,141.73
2019-06-10T21:46:27.105Z,137.97
2019-06-10T21:48:55.905Z,135.30
2019-06-10T21:51:24.815Z,131.50
2019-06-10T21:53:55.238Z,144.63
2019-06-10T21:56:22.811Z,140.27
2019-06-10T21:58:53.571Z,130.53
2019-06-10T22:01:22.244Z,130.20
2019-06-10T22:03:53.191Z,140.50
2019-06-10T22:06:18.764Z,140.70
2019-06-10T22:08:47.708Z,173.73
2019-06-10T22:11:15.747Z,138.53
2019-06-10T22:13:44.097Z,153.77
2019-06-10T22:16:12.002Z,143.43
2019-06-10T22:18:39.921Z,152.63
2019-06-10T22:21:07.851Z,150.57
2019-06-10T22:23:35.578Z,146.53
2019-06-10T22:26:03.442Z,140.37
2019-06-10T22:28:32.827Z,145.20
2019-06-10T22:31:17.975Z,147.23
2019-06-10T22:33:30.312Z,144.27
2019-06-10T22:35:58.172Z,147.07
2019-06-10T22:38:27.074Z,156.40
2019-06-10T22:40:56.916Z,143.83
2019-06-10T22:43:24.960Z,146.10
2019-06-10T22:45:55.503Z,149.97
2019-06-10T22:48:23.956Z,144.67
2019-06-10T22:50:51.797Z,142.27
2019-06-10T22:53:19.674Z,140.57
2019-06-10T22:55:48.382Z,142.60
2019-06-10T22:58:16.383Z,160.17
2019-06-10T23:00:44.351Z,134.70
2019-06-10T23:03:13.028Z,148.23
2019-06-10T23:05:43.429Z,148.47
2019-06-10T23:08:12.608Z,149.77
2019-06-10T23:10:42.655Z,145.40
2019-06-10T23:13:12.788Z,148.67
2019-06-10T23:18:35.292Z,145.33
2019-06-10T23:21:04.456Z,163.27
2019-06-10T23:23:32.694Z,147.67
2019-06-10T23:26:02.781Z,135.03
2019-06-10T23:28:32.565Z,138.73
2019-06-10T23:31:00.579Z,150.60
2019-06-10T23:33:29.454Z,144.87
2019-06-10T23:35:58.623Z,140.70
2019-06-10T23:38:26.711Z,142.90
2019-06-10T23:40:54.800Z,152.43
2019-06-10T23:43:22.811Z,143.77
2019-06-10T23:45:51.160Z,141.03
2019-06-10T23:48:18.981Z,154.90
2019-06-10T23:50:46.775Z,130.07
2019-06-10T23:53:14.615Z,135.83
2019-06-10T23:55:42.878Z,147.07
2019-06-10T23:58:12.916Z,153.17
